sensor_id;sensor_type;location;lat;lon;timestamp;pressure;altitude;pressure_sealevel;temperature
45034;BMP280;30771;47.988;-4.186;2023-12-28T00:02:13;100710.63;;;12.57
45034;BMP280;30771;47.988;-4.186;2023-12-28T00:04:40;100703.09;;;12.60
45034;BMP280;30771;47.988;-4.186;2023-12-28T00:07:07;100722.59;;;12.66
45034;BMP280;30771;47.988;-4.186;2023-12-28T00:09:33;100713.25;;;12.63
45034;BMP280;30771;47.988;-4.186;2023-12-28T00:12:00;100728.84;;;12.71
45034;BMP280;30771;47.988;-4.186;2023-12-28T00:14:27;100724.41;;;12.65
45034;BMP280;30771;47.988;-4.186;2023-12-28T00:16:53;100725.66;;;12.63
45034;BMP280;30771;47.988;-4.186;2023-12-28T00:19:20;100725.84;;;12.68
45034;BMP280;30771;47.988;-4.186;2023-12-28T00:21:48;100730.50;;;12.66
45034;BMP280;30771;47.988;-4.186;2023-12-28T00:24:16;100724.84;;;12.62
45034;BMP280;30771;47.988;-4.186;2023-12-28T00:26:43;100730.66;;;12.71
45034;BMP280;30771;47.988;-4.186;2023-12-28T00:29:09;100716.69;;;12.64
45034;BMP280;30771;47.988;-4.186;2023-12-28T00:31:37;100735.94;;;12.71
45034;BMP280;30771;47.988;-4.186;2023-12-28T00:34:04;100739.22;;;12.73
45034;BMP280;30771;47.988;-4.186;2023-12-28T00:36:31;100731.72;;;12.70
45034;BMP280;30771;47.988;-4.186;2023-12-28T00:38:58;100730.94;;;12.63
45034;BMP280;30771;47.988;-4.186;2023-12-28T00:41:24;100728.06;;;12.64
45034;BMP280;30771;47.988;-4.186;2023-12-28T00:43:51;100741.25;;;12.64
45034;BMP280;30771;47.988;-4.186;2023-12-28T00:46:18;100742.91;;;12.65
45034;BMP280;30771;47.988;-4.186;2023-12-28T00:48:45;100740.22;;;12.72
45034;BMP280;30771;47.988;-4.186;2023-12-28T00:51:12;100740.66;;;12.69
45034;BMP280;30771;47.988;-4.186;2023-12-28T00:53:38;100738.22;;;12.67
45034;BMP280;30771;47.988;-4.186;2023-12-28T00:56:05;100739.03;;;12.74
45034;BMP280;30771;47.988;-4.186;2023-12-28T00:58:32;100738.59;;;12.71
45034;BMP280;30771;47.988;-4.186;2023-12-28T01:00:58;100742.28;;;12.70
45034;BMP280;30771;47.988;-4.186;2023-12-28T01:03:25;100730.72;;;12.58
45034;BMP280;30771;47.988;-4.186;2023-12-28T01:05:53;100746.38;;;12.59
45034;BMP280;30771;47.988;-4.186;2023-12-28T01:08:19;100759.56;;;12.59
45034;BMP280;30771;47.988;-4.186;2023-12-28T01:10:46;100756.13;;;12.52
45034;BMP280;30771;47.988;-4.186;2023-12-28T01:13:13;100761.22;;;12.47
45034;BMP280;30771;47.988;-4.186;2023-12-28T01:15:40;100782.53;;;12.52
45034;BMP280;30771;47.988;-4.186;2023-12-28T01:18:06;100772.19;;;12.44
45034;BMP280;30771;47.988;-4.186;2023-12-28T01:20:34;100781.75;;;12.45
45034;BMP280;30771;47.988;-4.186;2023-12-28T01:23:01;100781.16;;;12.43
45034;BMP280;30771;47.988;-4.186;2023-12-28T01:25:27;100786.41;;;12.37
45034;BMP280;30771;47.988;-4.186;2023-12-28T01:27:54;100791.91;;;12.35
45034;BMP280;30771;47.988;-4.186;2023-12-28T01:30:21;100806.13;;;12.41
45034;BMP280;30771;47.988;-4.186;2023-12-28T01:32:48;100804.69;;;12.38
45034;BMP280;30771;47.988;-4.186;2023-12-28T01:35:15;100803.69;;;12.26
45034;BMP280;30771;47.988;-4.186;2023-12-28T01:37:42;100808.34;;;12.31
45034;BMP280;30771;47.988;-4.186;2023-12-28T01:40:09;100818.34;;;12.29
45034;BMP280;30771;47.988;-4.186;2023-12-28T01:42:36;100826.25;;;12.35
45034;BMP280;30771;47.988;-4.186;2023-12-28T01:45:03;100817.88;;;12.32
45034;BMP280;30771;47.988;-4.186;2023-12-28T01:47:30;100833.34;;;12.35
45034;BMP280;30771;47.988;-4.186;2023-12-28T01:49:58;100819.97;;;12.36
45034;BMP280;30771;47.988;-4.186;2023-12-28T01:52:27;100815.25;;;12.32
45034;BMP280;30771;47.988;-4.186;2023-12-28T01:54:54;100809.41;;;12.36
45034;BMP280;30771;47.988;-4.186;2023-12-28T01:57:21;100810.97;;;12.37
45034;BMP280;30771;47.988;-4.186;2023-12-28T01:59:48;100810.41;;;12.35
45034;BMP280;30771;47.988;-4.186;2023-12-28T02:02:15;100803.91;;;12.31
45034;BMP280;30771;47.988;-4.186;2023-12-28T02:04:43;100815.69;;;12.29
45034;BMP280;30771;47.988;-4.186;2023-12-28T02:07:10;100811.22;;;12.23
45034;BMP280;30771;47.988;-4.186;2023-12-28T02:09:38;100793.50;;;12.10
45034;BMP280;30771;47.988;-4.186;2023-12-28T02:12:05;100813.44;;;12.19
45034;BMP280;30771;47.988;-4.186;2023-12-28T02:14:31;100807.13;;;12.13
45034;BMP280;30771;47.988;-4.186;2023-12-28T02:17:21;100810.41;;;12.15
45034;BMP280;30771;47.988;-4.186;2023-12-28T02:19:56;100811.81;;;12.11
45034;BMP280;30771;47.988;-4.186;2023-12-28T02:22:25;100811.97;;;12.10
45034;BMP280;30771;47.988;-4.186;2023-12-28T02:27:25;100812.81;;;12.04
45034;BMP280;30771;47.988;-4.186;2023-12-28T02:29:53;100800.84;;;12.01
45034;BMP280;30771;47.988;-4.186;2023-12-28T02:32:24;100816.06;;;12.12
45034;BMP280;30771;47.988;-4.186;2023-12-28T02:34:59;100796.97;;;12.04
45034;BMP280;30771;47.988;-4.186;2023-12-28T02:37:29;100790.50;;;12.06
45034;BMP280;30771;47.988;-4.186;2023-12-28T02:39:57;100793.34;;;12.11
45034;BMP280;30771;47.988;-4.186;2023-12-28T02:42:24;100777.91;;;12.08
45034;BMP280;30771;47.988;-4.186;2023-12-28T02:44:51;100769.56;;;12.11
45034;BMP280;30771;47.988;-4.186;2023-12-28T02:47:18;100763.47;;;12.11
45034;BMP280;30771;47.988;-4.186;2023-12-28T02:49:44;100749.69;;;12.09
45034;BMP280;30771;47.988;-4.186;2023-12-28T02:52:11;100746.00;;;12.16
45034;BMP280;30771;47.988;-4.186;2023-12-28T02:54:38;100727.34;;;12.11
45034;BMP280;30771;47.988;-4.186;2023-12-28T02:57:05;100720.63;;;12.15
45034;BMP280;30771;47.988;-4.186;2023-12-28T02:59:31;100712.31;;;12.18
45034;BMP280;30771;47.988;-4.186;2023-12-28T03:01:58;100701.75;;;12.18
45034;BMP280;30771;47.988;-4.186;2023-12-28T03:04:25;100676.38;;;12.11
45034;BMP280;30771;47.988;-4.186;2023-12-28T03:06:51;100677.56;;;12.15
45034;BMP280;30771;47.988;-4.186;2023-12-28T03:09:18;100663.78;;;12.06
45034;BMP280;30771;47.988;-4.186;2023-12-28T03:11:45;100659.50;;;12.05
45034;BMP280;30771;47.988;-4.186;2023-12-28T03:14:12;100650.78;;;11.98
45034;BMP280;30771;47.988;-4.186;2023-12-28T03:16:38;100662.16;;;12.05
45034;BMP280;30771;47.988;-4.186;2023-12-28T03:19:05;100653.84;;;12.02
45034;BMP280;30771;47.988;-4.186;2023-12-28T03:21:32;100641.66;;;12.01
45034;BMP280;30771;47.988;-4.186;2023-12-28T03:23:59;100636.59;;;11.99
45034;BMP280;30771;47.988;-4.186;2023-12-28T03:26:25;100617.13;;;11.94
45034;BMP280;30771;47.988;-4.186;2023-12-28T03:28:52;100610.03;;;11.94
45034;BMP280;30771;47.988;-4.186;2023-12-28T03:31:18;100620.56;;;12.01
45034;BMP280;30771;47.988;-4.186;2023-12-28T03:33:45;100597.00;;;11.93
45034;BMP280;30771;47.988;-4.186;2023-12-28T03:36:19;100607.13;;;11.96
45034;BMP280;30771;47.988;-4.186;2023-12-28T03:38:45;100606.94;;;11.91
45034;BMP280;30771;47.988;-4.186;2023-12-28T03:41:19;100594.56;;;11.91
45034;BMP280;30771;47.988;-4.186;2023-12-28T03:43:46;100602.69;;;11.96
45034;BMP280;30771;47.988;-4.186;2023-12-28T03:46:13;100580.94;;;11.88
45034;BMP280;30771;47.988;-4.186;2023-12-28T03:48:40;100592.94;;;11.97
45034;BMP280;30771;47.988;-4.186;2023-12-28T03:51:07;100573.84;;;11.95
45034;BMP280;30771;47.988;-4.186;2023-12-28T03:53:34;100574.66;;;11.95
45034;BMP280;30771;47.988;-4.186;2023-12-28T03:56:01;100580.72;;;12.02
45034;BMP280;30771;47.988;-4.186;2023-12-28T03:58:27;100566.75;;;12.02
45034;BMP280;30771;47.988;-4.186;2023-12-28T04:00:54;100556.59;;;11.99
45034;BMP280;30771;47.988;-4.186;2023-12-28T04:03:21;100567.75;;;12.07
45034;BMP280;30771;47.988;-4.186;2023-12-28T04:05:48;100561.47;;;12.08
45034;BMP280;30771;47.988;-4.186;2023-12-28T04:08:14;100545.63;;;12.02
45034;BMP280;30771;47.988;-4.186;2023-12-28T04:10:43;100565.94;;;12.08
45034;BMP280;30771;47.988;-4.186;2023-12-28T04:13:10;100567.34;;;12.04
45034;BMP280;30771;47.988;-4.186;2023-12-28T04:15:36;100554.56;;;12.01
45034;BMP280;30771;47.988;-4.186;2023-12-28T04:18:03;100560.66;;;12.01
45034;BMP280;30771;47.988;-4.186;2023-12-28T04:20:31;100554.16;;;11.97
45034;BMP280;30771;47.988;-4.186;2023-12-28T04:22:57;100560.25;;;11.98
45034;BMP280;30771;47.988;-4.186;2023-12-28T04:25:24;100558.00;;;11.95
45034;BMP280;30771;47.988;-4.186;2023-12-28T04:27:51;100571.81;;;12.03
45034;BMP280;30771;47.988;-4.186;2023-12-28T04:30:17;100577.69;;;12.05
45034;BMP280;30771;47.988;-4.186;2023-12-28T04:32:44;100563.69;;;11.98
45034;BMP280;30771;47.988;-4.186;2023-12-28T04:35:11;100563.69;;;11.98
45034;BMP280;30771;47.988;-4.186;2023-12-28T04:37:38;100580.94;;;12.07
45034;BMP280;30771;47.988;-4.186;2023-12-28T04:40:05;100573.63;;;12.03
45034;BMP280;30771;47.988;-4.186;2023-12-28T04:42:31;100577.91;;;12.04
45034;BMP280;30771;47.988;-4.186;2023-12-28T04:44:58;100584.78;;;12.05
45034;BMP280;30771;47.988;-4.186;2023-12-28T04:47:25;100579.94;;;12.02
45034;BMP280;30771;47.988;-4.186;2023-12-28T04:49:52;100596.97;;;12.06
45034;BMP280;30771;47.988;-4.186;2023-12-28T04:52:18;100613.41;;;12.14
45034;BMP280;30771;47.988;-4.186;2023-12-28T04:54:45;100614.22;;;12.15
45034;BMP280;30771;47.988;-4.186;2023-12-28T04:57:12;100620.91;;;12.17
45034;BMP280;30771;47.988;-4.186;2023-12-28T04:59:39;100618.25;;;12.17
45034;BMP280;30771;47.988;-4.186;2023-12-28T05:02:06;100608.31;;;12.19
45034;BMP280;30771;47.988;-4.186;2023-12-28T05:04:36;100611.16;;;12.18
45034;BMP280;30771;47.988;-4.186;2023-12-28T05:07:03;100612.56;;;12.27
45034;BMP280;30771;47.988;-4.186;2023-12-28T05:09:30;100603.66;;;12.22
45034;BMP280;30771;47.988;-4.186;2023-12-28T05:11:57;100608.72;;;12.23
45034;BMP280;30771;47.988;-4.186;2023-12-28T05:14:23;100610.34;;;12.24
45034;BMP280;30771;47.988;-4.186;2023-12-28T05:16:50;100608.31;;;12.19
45034;BMP280;30771;47.988;-4.186;2023-12-28T05:19:17;100618.44;;;12.29
45034;BMP280;30771;47.988;-4.186;2023-12-28T05:21:43;100621.31;;;12.28
45034;BMP280;30771;47.988;-4.186;2023-12-28T05:24:10;100612.38;;;12.22
45034;BMP280;30771;47.988;-4.186;2023-12-28T05:26:37;100620.47;;;12.27
45034;BMP280;30771;47.988;-4.186;2023-12-28T05:29:04;100631.25;;;12.26
45034;BMP280;30771;47.988;-4.186;2023-12-28T05:31:30;100634.91;;;12.25
45034;BMP280;30771;47.988;-4.186;2023-12-28T05:33:57;100615.25;;;12.14
45034;BMP280;30771;47.988;-4.186;2023-12-28T05:36:24;100628.47;;;12.14
45034;BMP280;30771;47.988;-4.186;2023-12-28T05:38:51;100627.22;;;12.10
45034;BMP280;30771;47.988;-4.186;2023-12-28T05:41:18;100629.28;;;12.08
45034;BMP280;30771;47.988;-4.186;2023-12-28T05:43:45;100645.69;;;12.10
45034;BMP280;30771;47.988;-4.186;2023-12-28T05:46:11;100642.69;;;12.06
45034;BMP280;30771;47.988;-4.186;2023-12-28T05:48:38;100633.50;;;12.02
45034;BMP280;30771;47.988;-4.186;2023-12-28T05:51:05;100639.84;;;12.01
45034;BMP280;30771;47.988;-4.186;2023-12-28T05:53:32;100652.63;;;12.04
45034;BMP280;30771;47.988;-4.186;2023-12-28T05:55:58;100660.53;;;12.04
45034;BMP280;30771;47.988;-4.186;2023-12-28T05:58:25;100649.59;;;12.01
45034;BMP280;30771;47.988;-4.186;2023-12-28T06:00:52;100650.97;;;12.03
45034;BMP280;30771;47.988;-4.186;2023-12-28T06:03:18;100654.63;;;12.02
45034;BMP280;30771;47.988;-4.186;2023-12-28T06:05:45;100666.00;;;12.03
45034;BMP280;30771;47.988;-4.186;2023-12-28T06:08:12;100655.88;;;12.00
45034;BMP280;30771;47.988;-4.186;2023-12-28T06:10:39;100658.91;;;11.97
45034;BMP280;30771;47.988;-4.186;2023-12-28T06:13:06;100659.09;;;11.95
45034;BMP280;30771;47.988;-4.186;2023-12-28T06:15:32;100655.63;;;11.95
45034;BMP280;30771;47.988;-4.186;2023-12-28T06:17:59;100681.00;;;12.02
45034;BMP280;30771;47.988;-4.186;2023-12-28T06:20:26;100676.38;;;11.98
45034;BMP280;30771;47.988;-4.186;2023-12-28T06:22:53;100677.59;;;12.02
45034;BMP280;30771;47.988;-4.186;2023-12-28T06:25:20;100674.34;;;11.93
45034;BMP280;30771;47.988;-4.186;2023-12-28T06:27:47;100678.63;;;12.01
45034;BMP280;30771;47.988;-4.186;2023-12-28T06:30:13;100681.84;;;11.96
45034;BMP280;30771;47.988;-4.186;2023-12-28T06:32:40;100691.81;;;11.94
45034;BMP280;30771;47.988;-4.186;2023-12-28T06:35:07;100694.66;;;11.86
45034;BMP280;30771;47.988;-4.186;2023-12-28T06:37:34;100718.41;;;11.93
45034;BMP280;30771;47.988;-4.186;2023-12-28T06:40:01;100705.81;;;11.82
45034;BMP280;30771;47.988;-4.186;2023-12-28T06:42:27;100728.94;;;11.93
45034;BMP280;30771;47.988;-4.186;2023-12-28T06:44:54;100731.81;;;11.85
45034;BMP280;30771;47.988;-4.186;2023-12-28T06:47:21;100733.59;;;11.91
45034;BMP280;30771;47.988;-4.186;2023-12-28T06:49:48;100735.88;;;11.87
45034;BMP280;30771;47.988;-4.186;2023-12-28T06:52:15;100745.59;;;11.87
45034;BMP280;30771;47.988;-4.186;2023-12-28T06:54:41;100749.66;;;11.89
45034;BMP280;30771;47.988;-4.186;2023-12-28T06:57:08;100760.81;;;11.91
45034;BMP280;30771;47.988;-4.186;2023-12-28T06:59:35;100765.66;;;11.88
45034;BMP280;30771;47.988;-4.186;2023-12-28T07:02:01;100779.66;;;11.88
45034;BMP280;30771;47.988;-4.186;2023-12-28T07:04:28;100770.53;;;11.78
45034;BMP280;30771;47.988;-4.186;2023-12-28T07:06:55;100781.28;;;11.76
45034;BMP280;30771;47.988;-4.186;2023-12-28T07:09:22;100777.63;;;11.71
45034;BMP280;30771;47.988;-4.186;2023-12-28T07:11:48;100798.94;;;11.69
45034;BMP280;30771;47.988;-4.186;2023-12-28T07:14:15;100831.88;;;11.80
45034;BMP280;30771;47.988;-4.186;2023-12-28T07:16:42;100817.81;;;11.73
45034;BMP280;30771;47.988;-4.186;2023-12-28T07:19:08;100848.47;;;11.80
45034;BMP280;30771;47.988;-4.186;2023-12-28T07:21:35;100827.56;;;11.72
45034;BMP280;30771;47.988;-4.186;2023-12-28T07:24:02;100849.88;;;11.83
45034;BMP280;30771;47.988;-4.186;2023-12-28T07:26:29;100848.91;;;11.84
45034;BMP280;30771;47.988;-4.186;2023-12-28T07:28:55;100843.81;;;11.89
45034;BMP280;30771;47.988;-4.186;2023-12-28T07:31:26;100823.94;;;11.80
45034;BMP280;30771;47.988;-4.186;2023-12-28T07:33:53;100844.25;;;11.92
45034;BMP280;30771;47.988;-4.186;2023-12-28T07:36:20;100820.91;;;11.89
45034;BMP280;30771;47.988;-4.186;2023-12-28T07:38:47;100805.69;;;11.91
45034;BMP280;30771;47.988;-4.186;2023-12-28T07:41:14;100804.47;;;11.94
45034;BMP280;30771;47.988;-4.186;2023-12-28T07:43:41;100811.16;;;12.03
45034;BMP280;30771;47.988;-4.186;2023-12-28T07:46:07;100794.50;;;11.96
45034;BMP280;30771;47.988;-4.186;2023-12-28T07:48:34;100800.84;;;12.01
45034;BMP280;30771;47.988;-4.186;2023-12-28T07:51:04;100779.13;;;11.99
45034;BMP280;30771;47.988;-4.186;2023-12-28T07:53:31;100785.00;;;12.01
45034;BMP280;30771;47.988;-4.186;2023-12-28T07:55:58;100777.69;;;11.97
45034;BMP280;30771;47.988;-4.186;2023-12-28T07:58:24;100784.19;;;12.01
45034;BMP280;30771;47.988;-4.186;2023-12-28T08:00:51;100781.94;;;12.04
45034;BMP280;30771;47.988;-4.186;2023-12-28T08:03:18;100788.22;;;12.03
45034;BMP280;30771;47.988;-4.186;2023-12-28T08:05:45;100781.31;;;12.02
45034;BMP280;30771;47.988;-4.186;2023-12-28T08:08:12;100763.84;;;11.95
45034;BMP280;30771;47.988;-4.186;2023-12-28T08:10:38;100768.94;;;12.03
45034;BMP280;30771;47.988;-4.186;2023-12-28T08:13:05;100759.63;;;11.94
45034;BMP280;30771;47.988;-4.186;2023-12-28T08:15:32;100761.44;;;12.00
45034;BMP280;30771;47.988;-4.186;2023-12-28T08:17:58;100755.75;;;12.03
45034;BMP280;30771;47.988;-4.186;2023-12-28T08:20:26;100749.88;;;11.94
45034;BMP280;30771;47.988;-4.186;2023-12-28T08:22:52;100755.91;;;11.95
45034;BMP280;30771;47.988;-4.186;2023-12-28T08:25:39;100755.75;;;11.96
45034;BMP280;30771;47.988;-4.186;2023-12-28T08:28:06;100763.06;;;12.01
45034;BMP280;30771;47.988;-4.186;2023-12-28T08:30:33;100766.72;;;12.00
45034;BMP280;30771;47.988;-4.186;2023-12-28T08:33:00;100771.81;;;12.01
45034;BMP280;30771;47.988;-4.186;2023-12-28T08:35:27;100765.09;;;11.99
45034;BMP280;30771;47.988;-4.186;2023-12-28T08:37:53;100773.63;;;12.01
45034;BMP280;30771;47.988;-4.186;2023-12-28T08:40:20;100776.84;;;12.03
45034;BMP280;30771;47.988;-4.186;2023-12-28T08:42:47;100777.88;;;12.02
45034;BMP280;30771;47.988;-4.186;2023-12-28T08:45:13;100776.03;;;12.02
45034;BMP280;30771;47.988;-4.186;2023-12-28T08:47:40;100770.75;;;12.02
45034;BMP280;30771;47.988;-4.186;2023-12-28T08:50:07;100781.94;;;12.11
45034;BMP280;30771;47.988;-4.186;2023-12-28T08:52:34;100785.81;;;12.15
45034;BMP280;30771;47.988;-4.186;2023-12-28T08:55:01;100785.41;;;12.18
45034;BMP280;30771;47.988;-4.186;2023-12-28T08:57:28;100769.56;;;12.18
45034;BMP280;30771;47.988;-4.186;2023-12-28T09:00:08;100759.00;;;12.18
45034;BMP280;30771;47.988;-4.186;2023-12-28T09:02:34;100756.34;;;12.18
45034;BMP280;30771;47.988;-4.186;2023-12-28T09:05:01;100764.28;;;12.31
45034;BMP280;30771;47.988;-4.186;2023-12-28T09:07:28;100766.50;;;12.34
45034;BMP280;30771;47.988;-4.186;2023-12-28T09:09:55;100781.56;;;12.34
45034;BMP280;30771;47.988;-4.186;2023-12-28T09:12:22;100787.84;;;12.33
45034;BMP280;30771;47.988;-4.186;2023-12-28T09:14:48;100803.69;;;12.33
45034;BMP280;30771;47.988;-4.186;2023-12-28T09:17:15;100821.16;;;12.40
45034;BMP280;30771;47.988;-4.186;2023-12-28T09:19:42;100813.03;;;12.35
45034;BMP280;30771;47.988;-4.186;2023-12-28T09:22:09;100828.47;;;12.38
45034;BMP280;30771;47.988;-4.186;2023-12-28T09:24:35;100828.06;;;12.35
45034;BMP280;30771;47.988;-4.186;2023-12-28T09:27:02;100854.28;;;12.49
45034;BMP280;30771;47.988;-4.186;2023-12-28T09:29:29;100854.88;;;12.51
45034;BMP280;30771;47.988;-4.186;2023-12-28T09:31:55;100857.31;;;12.53
45034;BMP280;30771;47.988;-4.186;2023-12-28T09:34:22;100869.91;;;12.57
45034;BMP280;30771;47.988;-4.186;2023-12-28T09:36:49;100885.00;;;12.63
45034;BMP280;30771;47.988;-4.186;2023-12-28T09:39:16;100890.63;;;12.73
45034;BMP280;30771;47.988;-4.186;2023-12-28T09:41:48;100907.53;;;12.72
45034;BMP280;30771;47.988;-4.186;2023-12-28T09:44:17;100925.00;;;12.86
45034;BMP280;30771;47.988;-4.186;2023-12-28T09:46:44;100941.88;;;12.92
45034;BMP280;30771;47.988;-4.186;2023-12-28T09:49:11;100948.41;;;12.96
45034;BMP280;30771;47.988;-4.186;2023-12-28T09:51:38;100958.34;;;13.00
45034;BMP280;30771;47.988;-4.186;2023-12-28T09:54:05;100966.09;;;13.02
45034;BMP280;30771;47.988;-4.186;2023-12-28T09:56:32;100973.59;;;13.05
45034;BMP280;30771;47.988;-4.186;2023-12-28T09:59:00;100958.34;;;13.00
45034;BMP280;30771;47.988;-4.186;2023-12-28T10:01:28;100981.53;;;13.11
45034;BMP280;30771;47.988;-4.186;2023-12-28T10:03:55;100957.97;;;13.03
45034;BMP280;30771;47.988;-4.186;2023-12-28T10:06:22;100980.31;;;13.14
45034;BMP280;30771;47.988;-4.186;2023-12-28T10:08:49;100977.88;;;13.06
45034;BMP280;30771;47.988;-4.186;2023-12-28T10:11:17;100995.38;;;13.13
45034;BMP280;30771;47.988;-4.186;2023-12-28T10:13:44;100996.56;;;13.17
45034;BMP280;30771;47.988;-4.186;2023-12-28T10:16:12;100998.00;;;13.20
45034;BMP280;30771;47.988;-4.186;2023-12-28T10:18:42;100985.16;;;13.23
45034;BMP280;30771;47.988;-4.186;2023-12-28T10:21:11;100981.09;;;13.27
45034;BMP280;30771;47.988;-4.186;2023-12-28T10:23:38;100981.94;;;13.28
45034;BMP280;30771;47.988;-4.186;2023-12-28T10:26:05;100988.25;;;13.27
45034;BMP280;30771;47.988;-4.186;2023-12-28T10:28:32;101012.03;;;13.34
45034;BMP280;30771;47.988;-4.186;2023-12-28T10:30:59;101037.88;;;13.32
45034;BMP280;30771;47.988;-4.186;2023-12-28T10:33:27;101039.28;;;13.27
45034;BMP280;30771;47.988;-4.186;2023-12-28T10:35:57;101040.13;;;13.28
45034;BMP280;30771;47.988;-4.186;2023-12-28T10:38:25;101038.69;;;13.25
45034;BMP280;30771;47.988;-4.186;2023-12-28T10:40:53;101049.88;;;13.27
45034;BMP280;30771;47.988;-4.186;2023-12-28T10:43:23;101049.47;;;13.31
45034;BMP280;30771;47.988;-4.186;2023-12-28T10:45:51;101051.09;;;13.32
45034;BMP280;30771;47.988;-4.186;2023-12-28T10:48:28;101052.94;;;13.31
45034;BMP280;30771;47.988;-4.186;2023-12-28T10:50:57;101057.56;;;13.42
45034;BMP280;30771;47.988;-4.186;2023-12-28T10:54:06;101057.19;;;13.52
45034;BMP280;30771;47.988;-4.186;2023-12-28T10:56:51;101048.03;;;13.54
45034;BMP280;30771;47.988;-4.186;2023-12-28T10:59:32;101038.66;;;13.58
45034;BMP280;30771;47.988;-4.186;2023-12-28T11:02:02;101037.22;;;13.56
45034;BMP280;30771;47.988;-4.186;2023-12-28T11:04:49;101052.72;;;13.59
45034;BMP280;30771;47.988;-4.186;2023-12-28T11:07:20;101041.31;;;13.58
45034;BMP280;30771;47.988;-4.186;2023-12-28T11:09:48;101038.66;;;13.52
45034;BMP280;30771;47.988;-4.186;2023-12-28T11:12:16;101063.50;;;13.64
45034;BMP280;30771;47.988;-4.186;2023-12-28T11:14:43;101059.00;;;13.58
45034;BMP280;30771;47.988;-4.186;2023-12-28T11:17:11;101065.94;;;13.65
45034;BMP280;30771;47.988;-4.186;2023-12-28T11:19:38;101063.88;;;13.61
45034;BMP280;30771;47.988;-4.186;2023-12-28T11:22:06;101076.72;;;13.70
45034;BMP280;30771;47.988;-4.186;2023-12-28T11:24:33;101073.44;;;13.75
45034;BMP280;30771;47.988;-4.186;2023-12-28T11:27:00;101078.91;;;13.80
45034;BMP280;30771;47.988;-4.186;2023-12-28T11:29:29;101066.72;;;13.85
45034;BMP280;30771;47.988;-4.186;2023-12-28T11:31:59;101066.47;;;13.87
45034;BMP280;30771;47.988;-4.186;2023-12-28T11:34:27;101057.97;;;13.85
45034;BMP280;30771;47.988;-4.186;2023-12-28T11:36:55;101076.22;;;13.99
45034;BMP280;30771;47.988;-4.186;2023-12-28T11:39:33;101070.75;;;13.94
45034;BMP280;30771;47.988;-4.186;2023-12-28T11:44:27;101092.31;;;13.98
45034;BMP280;30771;47.988;-4.186;2023-12-28T11:46:54;101109.44;;;14.02
45034;BMP280;30771;47.988;-4.186;2023-12-28T11:49:25;101128.38;;;13.99
45034;BMP280;30771;47.988;-4.186;2023-12-28T11:51:57;101103.72;;;13.98
45034;BMP280;30771;47.988;-4.186;2023-12-28T11:54:25;101113.47;;;14.11
45034;BMP280;30771;47.988;-4.186;2023-12-28T11:56:52;101120.81;;;14.15
45034;BMP280;30771;47.988;-4.186;2023-12-28T11:59:20;101114.91;;;14.07
45034;BMP280;30771;47.988;-4.186;2023-12-28T12:01:50;101113.72;;;14.03
45034;BMP280;30771;47.988;-4.186;2023-12-28T12:04:21;101122.44;;;14.10
45034;BMP280;30771;47.988;-4.186;2023-12-28T12:06:48;101129.78;;;14.08
45034;BMP280;30771;47.988;-4.186;2023-12-28T12:09:15;101122.25;;;14.05
45034;BMP280;30771;47.988;-4.186;2023-12-28T12:11:41;101115.09;;;14.12
45034;BMP280;30771;47.988;-4.186;2023-12-28T12:14:09;101107.16;;;14.12
45034;BMP280;30771;47.988;-4.186;2023-12-28T12:16:37;101089.44;;;14.12
45034;BMP280;30771;47.988;-4.186;2023-12-28T12:19:04;101069.69;;;14.15
45034;BMP280;30771;47.988;-4.186;2023-12-28T12:21:35;101074.31;;;14.26
45034;BMP280;30771;47.988;-4.186;2023-12-28T12:24:02;101083.28;;;14.18
45034;BMP280;30771;47.988;-4.186;2023-12-28T12:26:29;101064.34;;;14.21
45034;BMP280;30771;47.988;-4.186;2023-12-28T12:28:55;101079.00;;;14.24
45034;BMP280;30771;47.988;-4.186;2023-12-28T12:31:23;101068.22;;;14.19
45034;BMP280;30771;47.988;-4.186;2023-12-28T12:33:50;101064.56;;;14.20
45034;BMP280;30771;47.988;-4.186;2023-12-28T12:36:18;101076.97;;;14.26
45034;BMP280;30771;47.988;-4.186;2023-12-28T12:38:45;101075.34;;;14.25
45034;BMP280;30771;47.988;-4.186;2023-12-28T12:41:12;101076.78;;;14.21
45034;BMP280;30771;47.988;-4.186;2023-12-28T12:43:40;101058.28;;;14.14
45034;BMP280;30771;47.988;-4.186;2023-12-28T12:46:07;101058.44;;;14.13
45034;BMP280;30771;47.988;-4.186;2023-12-28T12:48:34;101058.28;;;14.14
45034;BMP280;30771;47.988;-4.186;2023-12-28T12:51:04;101051.53;;;14.12
45034;BMP280;30771;47.988;-4.186;2023-12-28T12:53:34;101046.88;;;14.07
45034;BMP280;30771;47.988;-4.186;2023-12-28T12:56:02;101059.28;;;14.13
45034;BMP280;30771;47.988;-4.186;2023-12-28T12:58:30;101033.66;;;14.01
45034;BMP280;30771;47.988;-4.186;2023-12-28T13:01:00;101062.31;;;14.10
45034;BMP280;30771;47.988;-4.186;2023-12-28T13:03:28;101055.63;;;14.08
45034;BMP280;30771;47.988;-4.186;2023-12-28T13:05:54;101054.63;;;14.09
45034;BMP280;30771;47.988;-4.186;2023-12-28T13:08:22;101043.19;;;14.08
45034;BMP280;30771;47.988;-4.186;2023-12-28T13:10:48;101069.03;;;14.13
45034;BMP280;30771;47.988;-4.186;2023-12-28T13:13:15;101059.66;;;14.10
45034;BMP280;30771;47.988;-4.186;2023-12-28T13:15:42;101059.09;;;14.15
45034;BMP280;30771;47.988;-4.186;2023-12-28T13:18:09;101067.63;;;14.17
45034;BMP280;30771;47.988;-4.186;2023-12-28T13:20:36;101064.09;;;14.23
45034;BMP280;30771;47.988;-4.186;2023-12-28T13:23:03;101083.78;;;14.40
45034;BMP280;30771;47.988;-4.186;2023-12-28T13:25:33;101090.75;;;14.41
45034;BMP280;30771;47.988;-4.186;2023-12-28T13:27:59;101090.34;;;14.37
45034;BMP280;30771;47.988;-4.186;2023-12-28T13:30:26;101077.34;;;14.23
45034;BMP280;30771;47.988;-4.186;2023-12-28T13:32:54;101080.00;;;14.23
45034;BMP280;30771;47.988;-4.186;2023-12-28T13:35:21;101079.22;;;14.22
45034;BMP280;30771;47.988;-4.186;2023-12-28T13:37:48;101079.19;;;14.29
45034;BMP280;30771;47.988;-4.186;2023-12-28T13:40:15;101063.94;;;14.18
45034;BMP280;30771;47.988;-4.186;2023-12-28T13:42:46;101058.03;;;14.22
45034;BMP280;30771;47.988;-4.186;2023-12-28T13:45:13;101060.66;;;14.22
45034;BMP280;30771;47.988;-4.186;2023-12-28T13:47:40;101051.31;;;14.13
45034;BMP280;30771;47.988;-4.186;2023-12-28T13:50:07;101061.50;;;14.16
45034;BMP280;30771;47.988;-4.186;2023-12-28T13:52:34;101061.28;;;14.18